PWSweather.com
Personal Weather Stations
Station Observations
VPOKROGLO
Kal Nad Kanalom, PrimorskaSI

Kal Nad KanalomPrimorskaSI

Lat: 46.072, Lon: 13.734

Elevation: 2526

Station Type: WS-2355

http://www.okroglovreme.com

Latest ConditionsUpdated 7:45:01 AM GMT+01:01 Sunday, Oct 26, 2014
Currently Today's Max Today's Min Today's Average
Temperature 40.3°F4.6°C 43.0°F6.1°C 40.3°F4.6°C 41.9°F5.5°C
Dew Point 35.8°F2.1°C 36.6°F2.6°C 35.7°F2.1°C 36.2°F2.3°C
Winds 4.2 mph W6.8 kmh W 6.1 mph S9.8 kmh S - 4.8 mph 7.7 kmh
Wind Gusts 10.7 mph17.2 kmh 23.3 mph37.5 kmh - -
Humidity 84% 84% 78% 80%
Pressure 30.04 in1017.3 mb 30.04 in1017.3 mb 29.97 in1014.9 mb -
Hour Temp Dew Point Humidity Winds Wind Gusts Pressure Precip Precip Rate Daily Precip Total
07:45 AM 40.3°F4.6°C 35.8°F2.1°C 84% 4.2 mph W6.8 kmh W 10.7 mph17.2 kmh 30.04 in1017.3 mb 0.00 in0.0 mm 0.00 in/hr0.0 mm/hr 0.00 in0.0 mm
07:30 AM 40.3°F4.6°C 35.8°F2.1°C 84% 4.6 mph NNW7.4 kmh NNW 15.0 mph24.1 kmh 30.03 in1016.9 mb 0.00 in0.0 mm 0.00 in/hr0.0 mm/hr 0.00 in0.0 mm
07:15 AM 40.5°F4.7°C 36.0°F2.2°C 84% 5.7 mph NE9.2 kmh NE 20.1 mph32.3 kmh 30.02 in1016.6 mb 0.00 in0.0 mm 0.00 in/hr0.0 mm/hr 0.00 in0.0 mm
07:00 AM 40.6°F4.8°C 36.2°F2.3°C 84% 5.7 mph E9.2 kmh E 19.7 mph31.7 kmh 30.01 in1016.3 mb 0.00 in0.0 mm 0.00 in/hr0.0 mm/hr 0.00 in0.0 mm
06:45 AM 40.6°F4.8°C 35.9°F2.2°C 83% 5.4 mph N8.7 kmh N 15.7 mph25.3 kmh 30.01 in1016.3 mb 0.00 in0.0 mm 0.00 in/hr0.0 mm/hr 0.00 in0.0 mm
06:30 AM 40.6°F4.8°C 35.9°F2.2°C 83% 5.5 mph ESE8.9 kmh ESE 23.3 mph37.5 kmh 30.00 in1015.9 mb 0.00 in0.0 mm 0.00 in/hr0.0 mm/hr 0.00 in0.0 mm
06:15 AM 40.8°F4.9°C 36.1°F2.3°C 83% 4.1 mph NW6.6 kmh NW 12.8 mph20.6 kmh 30.00 in1015.9 mb 0.00 in0.0 mm 0.00 in/hr0.0 mm/hr 0.00 in0.0 mm
06:00 AM 40.8°F4.9°C 36.1°F2.3°C 83% 4.8 mph NW7.7 kmh NW 12.1 mph19.5 kmh 30.00 in1015.9 mb 0.00 in0.0 mm 0.00 in/hr0.0 mm/hr 0.00 in0.0 mm
05:45 AM 40.8°F4.9°C 35.7°F2.1°C 82% 4.7 mph N7.6 kmh N 19.0 mph30.6 kmh 30.01 in1016.3 mb 0.00 in0.0 mm 0.00 in/hr0.0 mm/hr 0.00 in0.0 mm
05:30 AM 41.0°F5.0°C 35.9°F2.2°C 82% 5.0 mph E8.0 kmh E 14.8 mph23.8 kmh 30.00 in1015.9 mb 0.00 in0.0 mm 0.00 in/hr0.0 mm/hr 0.00 in0.0 mm
05:15 AM 41.2°F5.1°C 36.1°F2.3°C 82% 4.8 mph SW7.7 kmh SW 14.3 mph23.0 kmh 29.99 in1015.6 mb 0.00 in0.0 mm 0.00 in/hr0.0 mm/hr 0.00 in0.0 mm
05:00 AM 41.5°F5.3°C 36.1°F2.3°C 81% 4.7 mph SW7.6 kmh SW 14.3 mph23.0 kmh 29.99 in1015.6 mb 0.00 in0.0 mm 0.00 in/hr0.0 mm/hr 0.00 in0.0 mm
04:45 AM 41.9°F5.5°C 36.2°F2.3°C 80% 5.2 mph SSW8.4 kmh SSW 15.4 mph24.8 kmh 29.99 in1015.6 mb 0.00 in0.0 mm 0.00 in/hr0.0 mm/hr 0.00 in0.0 mm
04:30 AM 42.1°F5.6°C 36.4°F2.4°C 80% 4.8 mph S7.7 kmh S 14.8 mph23.8 kmh 29.99 in1015.6 mb 0.00 in0.0 mm 0.00 in/hr0.0 mm/hr 0.00 in0.0 mm
04:15 AM 41.9°F5.5°C 36.2°F2.3°C 80% 5.0 mph SW8.0 kmh SW 11.4 mph18.3 kmh 29.99 in1015.6 mb 0.00 in0.0 mm 0.00 in/hr0.0 mm/hr 0.00 in0.0 mm
04:00 AM 42.1°F5.6°C 36.4°F2.4°C 80% 4.9 mph SW7.9 kmh SW 12.1 mph19.5 kmh 29.98 in1015.2 mb 0.00 in0.0 mm 0.00 in/hr0.0 mm/hr 0.00 in0.0 mm
03:45 AM 42.1°F5.6°C 36.0°F2.2°C 79% 4.9 mph S7.9 kmh S 17.7 mph28.5 kmh 29.99 in1015.6 mb 0.00 in0.0 mm 0.00 in/hr0.0 mm/hr 0.00 in0.0 mm
03:30 AM 42.1°F5.6°C 36.4°F2.4°C 80% 3.8 mph SW6.1 kmh SW 10.7 mph17.2 kmh 29.99 in1015.6 mb 0.00 in0.0 mm 0.00 in/hr0.0 mm/hr 0.00 in0.0 mm
03:15 AM 42.1°F5.6°C 36.4°F2.4°C 80% 5.0 mph SE8.0 kmh SE 15.9 mph25.6 kmh 29.99 in1015.6 mb 0.00 in0.0 mm 0.00 in/hr0.0 mm/hr 0.00 in0.0 mm
03:00 AM 42.1°F5.6°C 36.0°F2.2°C 79% 3.7 mph WNW6.0 kmh WNW 10.5 mph16.9 kmh 30.00 in1015.9 mb 0.00 in0.0 mm 0.00 in/hr0.0 mm/hr 0.00 in0.0 mm
02:45 AM 42.4°F5.8°C 36.1°F2.3°C 78% 4.6 mph WSW7.4 kmh WSW 18.1 mph29.1 kmh 30.00 in1015.9 mb 0.00 in0.0 mm 0.00 in/hr0.0 mm/hr 0.00 in0.0 mm
02:30 AM 42.6°F5.9°C 36.2°F2.3°C 78% 4.5 mph SW7.2 kmh SW 18.1 mph29.1 kmh 30.01 in1016.3 mb 0.00 in0.0 mm 0.00 in/hr0.0 mm/hr 0.00 in0.0 mm
02:15 AM 43.0°F6.1°C 36.6°F2.6°C 78% 4.3 mph WNW6.9 kmh WNW 18.1 mph29.1 kmh 30.01 in1016.3 mb 0.00 in0.0 mm 0.00 in/hr0.0 mm/hr 0.00 in0.0 mm
02:00 AM 43.0°F6.1°C 36.6°F2.6°C 78% 3.9 mph WNW6.3 kmh WNW 10.1 mph16.3 kmh 30.00 in1015.9 mb 0.00 in0.0 mm 0.00 in/hr0.0 mm/hr 0.00 in0.0 mm
01:45 AM 43.0°F6.1°C 36.6°F2.6°C 78% 5.4 mph SW8.7 kmh SW 17.0 mph27.4 kmh 30.00 in1015.9 mb 0.00 in0.0 mm 0.00 in/hr0.0 mm/hr 0.00 in0.0 mm
01:30 AM 43.0°F6.1°C 36.6°F2.6°C 78% 3.6 mph NNW5.8 kmh NNW 11.6 mph18.7 kmh 29.99 in1015.6 mb 0.00 in0.0 mm 0.00 in/hr0.0 mm/hr 0.00 in0.0 mm
01:15 AM 43.0°F6.1°C 36.6°F2.6°C 78% 4.5 mph NNW7.2 kmh NNW 14.5 mph23.3 kmh 29.99 in1015.6 mb 0.00 in0.0 mm 0.00 in/hr0.0 mm/hr 0.00 in0.0 mm
01:00 AM 43.0°F6.1°C 36.6°F2.6°C 78% 5.3 mph SSW8.5 kmh SSW 15.7 mph25.3 kmh 29.98 in1015.2 mb 0.00 in0.0 mm 0.00 in/hr0.0 mm/hr 0.00 in0.0 mm
12:45 AM 43.0°F6.1°C 36.6°F2.6°C 78% 5.0 mph NNW8.0 kmh NNW 11.6 mph18.7 kmh 29.98 in1015.2 mb 0.00 in0.0 mm 0.00 in/hr0.0 mm/hr 0.00 in0.0 mm
12:30 AM 43.0°F6.1°C 36.6°F2.6°C 78% 4.1 mph NNW6.6 kmh NNW 13.0 mph20.9 kmh 29.98 in1015.2 mb 0.00 in0.0 mm 0.00 in/hr0.0 mm/hr 0.00 in0.0 mm
12:15 AM 43.0°F6.1°C 36.6°F2.6°C 78% 5.6 mph SSW9.0 kmh SSW 19.5 mph31.4 kmh 29.97 in1014.9 mb 0.00 in0.0 mm 0.00 in/hr0.0 mm/hr 0.00 in0.0 mm
12:00 AM 42.8°F6.0°C 36.4°F2.4°C 78% 6.1 mph S9.8 kmh S 18.3 mph29.5 kmh 29.98 in1015.2 mb 0.00 in0.0 mm 0.00 in/hr0.0 mm/hr 0.00 in0.0 mm